sensor_id;sensor_type;location;lat;lon;timestamp;P1;durP1;ratioP1;P2;durP2;ratioP2
57593;SDS011;43423;46.510;6.686;2022-08-20T00:00:25;16.75;;;9.27;;
57593;SDS011;43423;46.510;6.686;2022-08-20T00:03:25;13.13;;;8.45;;
57593;SDS011;43423;46.510;6.686;2022-08-20T00:06:02;11.55;;;8.23;;
57593;SDS011;43423;46.510;6.686;2022-08-20T00:08:30;12.90;;;8.27;;
57593;SDS011;43423;46.510;6.686;2022-08-20T00:10:57;12.77;;;8.77;;
57593;SDS011;43423;46.510;6.686;2022-08-20T00:13:25;11.27;;;7.53;;
57593;SDS011;43423;46.510;6.686;2022-08-20T00:15:53;11.57;;;8.25;;
57593;SDS011;43423;46.510;6.686;2022-08-20T00:18:19;13.73;;;8.25;;
57593;SDS011;43423;46.510;6.686;2022-08-20T00:20:47;11.65;;;7.80;;
57593;SDS011;43423;46.510;6.686;2022-08-20T00:23:14;11.68;;;7.60;;
57593;SDS011;43423;46.510;6.686;2022-08-20T00:25:41;13.05;;;8.43;;
57593;SDS011;43423;46.510;6.686;2022-08-20T00:28:08;13.82;;;8.25;;
57593;SDS011;43423;46.510;6.686;2022-08-20T00:30:34;11.98;;;8.00;;
57593;SDS011;43423;46.510;6.686;2022-08-20T00:33:03;11.75;;;8.20;;
57593;SDS011;43423;46.510;6.686;2022-08-20T00:35:35;13.23;;;8.00;;
57593;SDS011;43423;46.510;6.686;2022-08-20T00:38:04;12.57;;;7.95;;
57593;SDS011;43423;46.510;6.686;2022-08-20T00:40:32;11.55;;;8.52;;
57593;SDS011;43423;46.510;6.686;2022-08-20T00:43:01;12.80;;;8.55;;
57593;SDS011;43423;46.510;6.686;2022-08-20T00:45:30;12.43;;;8.10;;
57593;SDS011;43423;46.510;6.686;2022-08-20T00:47:57;14.00;;;9.13;;
57593;SDS011;43423;46.510;6.686;2022-08-20T00:50:28;14.13;;;8.82;;
57593;SDS011;43423;46.510;6.686;2022-08-20T00:53:00;13.40;;;8.88;;
57593;SDS011;43423;46.510;6.686;2022-08-20T00:55:29;13.23;;;7.75;;
57593;SDS011;43423;46.510;6.686;2022-08-20T00:57:58;11.60;;;7.95;;
57593;SDS011;43423;46.510;6.686;2022-08-20T01:00:29;12.90;;;8.68;;
57593;SDS011;43423;46.510;6.686;2022-08-20T01:02:56;11.75;;;8.18;;
57593;SDS011;43423;46.510;6.686;2022-08-20T01:05:24;17.10;;;8.68;;
57593;SDS011;43423;46.510;6.686;2022-08-20T01:07:51;11.93;;;8.10;;
57593;SDS011;43423;46.510;6.686;2022-08-20T01:10:20;12.70;;;8.65;;
57593;SDS011;43423;46.510;6.686;2022-08-20T01:12:48;15.83;;;8.30;;
57593;SDS011;43423;46.510;6.686;2022-08-20T01:15:15;10.70;;;8.07;;
57593;SDS011;43423;46.510;6.686;2022-08-20T01:17:43;12.32;;;7.45;;
57593;SDS011;43423;46.510;6.686;2022-08-20T01:23:06;13.10;;;7.63;;
57593;SDS011;43423;46.510;6.686;2022-08-20T01:28:30;14.30;;;7.55;;
57593;SDS011;43423;46.510;6.686;2022-08-20T01:31:06;12.40;;;8.60;;
57593;SDS011;43423;46.510;6.686;2022-08-20T01:33:34;11.95;;;8.00;;
57593;SDS011;43423;46.510;6.686;2022-08-20T01:36:00;11.38;;;8.43;;
57593;SDS011;43423;46.510;6.686;2022-08-20T01:38:27;12.95;;;8.18;;
57593;SDS011;43423;46.510;6.686;2022-08-20T01:43:22;12.30;;;7.90;;
57593;SDS011;43423;46.510;6.686;2022-08-20T01:45:48;14.30;;;7.72;;
57593;SDS011;43423;46.510;6.686;2022-08-20T01:48:15;11.55;;;8.63;;
57593;SDS011;43423;46.510;6.686;2022-08-20T01:50:42;13.05;;;8.73;;
57593;SDS011;43423;46.510;6.686;2022-08-20T01:53:28;13.98;;;8.63;;
57593;SDS011;43423;46.510;6.686;2022-08-20T01:55:58;14.38;;;8.65;;
57593;SDS011;43423;46.510;6.686;2022-08-20T01:58:25;13.82;;;8.18;;
57593;SDS011;43423;46.510;6.686;2022-08-20T02:00:54;14.52;;;8.65;;
57593;SDS011;43423;46.510;6.686;2022-08-20T02:03:21;13.02;;;8.60;;
57593;SDS011;43423;46.510;6.686;2022-08-20T02:05:47;16.02;;;9.43;;
57593;SDS011;43423;46.510;6.686;2022-08-20T02:08:13;12.45;;;9.00;;
57593;SDS011;43423;46.510;6.686;2022-08-20T02:10:38;13.80;;;8.68;;
57593;SDS011;43423;46.510;6.686;2022-08-20T02:13:04;15.65;;;8.38;;
57593;SDS011;43423;46.510;6.686;2022-08-20T02:15:33;12.82;;;8.30;;
57593;SDS011;43423;46.510;6.686;2022-08-20T02:17:58;12.40;;;8.23;;
57593;SDS011;43423;46.510;6.686;2022-08-20T02:20:28;14.10;;;8.20;;
57593;SDS011;43423;46.510;6.686;2022-08-20T02:22:56;15.38;;;9.05;;
57593;SDS011;43423;46.510;6.686;2022-08-20T02:25:24;12.93;;;8.35;;
57593;SDS011;43423;46.510;6.686;2022-08-20T02:27:52;12.00;;;8.05;;
57593;SDS011;43423;46.510;6.686;2022-08-20T02:30:39;13.82;;;8.13;;
57593;SDS011;43423;46.510;6.686;2022-08-20T02:33:09;12.88;;;8.57;;
57593;SDS011;43423;46.510;6.686;2022-08-20T02:35:37;12.82;;;8.30;;
57593;SDS011;43423;46.510;6.686;2022-08-20T02:38:04;13.57;;;9.20;;
57593;SDS011;43423;46.510;6.686;2022-08-20T02:40:30;14.63;;;9.68;;
57593;SDS011;43423;46.510;6.686;2022-08-20T02:42:57;13.50;;;9.05;;
57593;SDS011;43423;46.510;6.686;2022-08-20T02:45:25;12.48;;;8.82;;
57593;SDS011;43423;46.510;6.686;2022-08-20T02:47:51;14.88;;;10.15;;
57593;SDS011;43423;46.510;6.686;2022-08-20T02:50:18;16.05;;;9.85;;
57593;SDS011;43423;46.510;6.686;2022-08-20T02:52:45;14.55;;;9.27;;
57593;SDS011;43423;46.510;6.686;2022-08-20T02:55:11;16.48;;;10.18;;
57593;SDS011;43423;46.510;6.686;2022-08-20T02:57:38;13.57;;;9.02;;
57593;SDS011;43423;46.510;6.686;2022-08-20T03:00:08;15.90;;;10.52;;
57593;SDS011;43423;46.510;6.686;2022-08-20T03:02:36;15.82;;;9.88;;
57593;SDS011;43423;46.510;6.686;2022-08-20T03:05:02;14.98;;;9.50;;
57593;SDS011;43423;46.510;6.686;2022-08-20T03:07:28;16.10;;;9.32;;
57593;SDS011;43423;46.510;6.686;2022-08-20T03:09:54;17.15;;;9.57;;
57593;SDS011;43423;46.510;6.686;2022-08-20T03:12:19;16.15;;;9.13;;
57593;SDS011;43423;46.510;6.686;2022-08-20T03:14:45;15.02;;;9.60;;
57593;SDS011;43423;46.510;6.686;2022-08-20T03:17:10;14.80;;;9.27;;
57593;SDS011;43423;46.510;6.686;2022-08-20T03:19:36;12.98;;;9.02;;
57593;SDS011;43423;46.510;6.686;2022-08-20T03:22:02;14.25;;;9.50;;
57593;SDS011;43423;46.510;6.686;2022-08-20T03:24:28;14.30;;;9.18;;
57593;SDS011;43423;46.510;6.686;2022-08-20T03:26:53;16.00;;;8.88;;
57593;SDS011;43423;46.510;6.686;2022-08-20T03:29:19;13.75;;;9.23;;
57593;SDS011;43423;46.510;6.686;2022-08-20T03:31:44;18.60;;;9.43;;
57593;SDS011;43423;46.510;6.686;2022-08-20T03:34:10;17.52;;;9.52;;
57593;SDS011;43423;46.510;6.686;2022-08-20T03:36:36;16.05;;;9.80;;
57593;SDS011;43423;46.510;6.686;2022-08-20T03:39:03;15.40;;;9.43;;
57593;SDS011;43423;46.510;6.686;2022-08-20T03:41:30;14.45;;;9.27;;
57593;SDS011;43423;46.510;6.686;2022-08-20T03:43:56;14.95;;;9.48;;
57593;SDS011;43423;46.510;6.686;2022-08-20T03:46:22;16.50;;;9.43;;
57593;SDS011;43423;46.510;6.686;2022-08-20T03:48:48;17.85;;;10.05;;
57593;SDS011;43423;46.510;6.686;2022-08-20T03:51:15;14.98;;;9.73;;
57593;SDS011;43423;46.510;6.686;2022-08-20T03:53:40;17.95;;;11.25;;
57593;SDS011;43423;46.510;6.686;2022-08-20T03:56:06;16.50;;;10.50;;
57593;SDS011;43423;46.510;6.686;2022-08-20T03:58:32;15.82;;;10.15;;
57593;SDS011;43423;46.510;6.686;2022-08-20T04:00:58;15.20;;;10.32;;
57593;SDS011;43423;46.510;6.686;2022-08-20T04:03:24;18.15;;;11.15;;
57593;SDS011;43423;46.510;6.686;2022-08-20T04:05:50;17.20;;;10.75;;
57593;SDS011;43423;46.510;6.686;2022-08-20T04:08:21;17.35;;;10.48;;
57593;SDS011;43423;46.510;6.686;2022-08-20T04:10:48;19.08;;;11.27;;
57593;SDS011;43423;46.510;6.686;2022-08-20T04:13:15;17.92;;;10.73;;
57593;SDS011;43423;46.510;6.686;2022-08-20T04:15:42;17.52;;;10.73;;
57593;SDS011;43423;46.510;6.686;2022-08-20T04:18:10;16.73;;;10.02;;
57593;SDS011;43423;46.510;6.686;2022-08-20T04:20:37;21.15;;;11.18;;
57593;SDS011;43423;46.510;6.686;2022-08-20T04:23:04;18.35;;;11.32;;
57593;SDS011;43423;46.510;6.686;2022-08-20T04:25:31;16.88;;;11.18;;
57593;SDS011;43423;46.510;6.686;2022-08-20T04:27:58;21.75;;;12.07;;
57593;SDS011;43423;46.510;6.686;2022-08-20T04:30:24;18.50;;;11.38;;
57593;SDS011;43423;46.510;6.686;2022-08-20T04:32:51;18.70;;;10.65;;
57593;SDS011;43423;46.510;6.686;2022-08-20T04:35:17;18.50;;;10.82;;
57593;SDS011;43423;46.510;6.686;2022-08-20T04:37:44;16.70;;;10.75;;
57593;SDS011;43423;46.510;6.686;2022-08-20T04:40:12;18.75;;;11.30;;
57593;SDS011;43423;46.510;6.686;2022-08-20T04:43:02;20.67;;;12.05;;
57593;SDS011;43423;46.510;6.686;2022-08-20T04:45:30;21.30;;;12.15;;
57593;SDS011;43423;46.510;6.686;2022-08-20T04:47:56;22.00;;;11.63;;
57593;SDS011;43423;46.510;6.686;2022-08-20T04:50:22;22.15;;;11.95;;
57593;SDS011;43423;46.510;6.686;2022-08-20T04:52:47;21.88;;;12.57;;
57593;SDS011;43423;46.510;6.686;2022-08-20T04:55:14;20.38;;;11.88;;
57593;SDS011;43423;46.510;6.686;2022-08-20T04:57:41;20.45;;;11.82;;
57593;SDS011;43423;46.510;6.686;2022-08-20T05:00:10;20.88;;;11.45;;
57593;SDS011;43423;46.510;6.686;2022-08-20T05:05:05;17.98;;;11.20;;
57593;SDS011;43423;46.510;6.686;2022-08-20T05:07:36;18.70;;;10.60;;
57593;SDS011;43423;46.510;6.686;2022-08-20T05:10:03;14.88;;;10.25;;
57593;SDS011;43423;46.510;6.686;2022-08-20T05:12:29;15.77;;;9.40;;
57593;SDS011;43423;46.510;6.686;2022-08-20T05:14:55;18.55;;;10.10;;
57593;SDS011;43423;46.510;6.686;2022-08-20T05:17:22;17.20;;;10.45;;
57593;SDS011;43423;46.510;6.686;2022-08-20T05:19:48;18.00;;;10.75;;
57593;SDS011;43423;46.510;6.686;2022-08-20T05:22:17;16.40;;;10.10;;
57593;SDS011;43423;46.510;6.686;2022-08-20T05:24:43;18.15;;;11.43;;
57593;SDS011;43423;46.510;6.686;2022-08-20T05:27:09;15.95;;;10.05;;
57593;SDS011;43423;46.510;6.686;2022-08-20T05:29:34;16.75;;;10.40;;
57593;SDS011;43423;46.510;6.686;2022-08-20T05:32:00;17.80;;;10.57;;
57593;SDS011;43423;46.510;6.686;2022-08-20T05:34:27;17.67;;;10.50;;
57593;SDS011;43423;46.510;6.686;2022-08-20T05:36:53;16.00;;;9.68;;
57593;SDS011;43423;46.510;6.686;2022-08-20T05:39:19;19.38;;;9.85;;
57593;SDS011;43423;46.510;6.686;2022-08-20T05:41:46;18.35;;;10.90;;
57593;SDS011;43423;46.510;6.686;2022-08-20T05:44:14;17.73;;;10.85;;
57593;SDS011;43423;46.510;6.686;2022-08-20T05:46:40;16.90;;;9.90;;
57593;SDS011;43423;46.510;6.686;2022-08-20T05:49:11;15.27;;;9.55;;
57593;SDS011;43423;46.510;6.686;2022-08-20T05:51:40;14.45;;;9.45;;
57593;SDS011;43423;46.510;6.686;2022-08-20T05:54:06;15.63;;;9.55;;
57593;SDS011;43423;46.510;6.686;2022-08-20T05:56:32;18.88;;;10.15;;
57593;SDS011;43423;46.510;6.686;2022-08-20T05:58:59;21.42;;;10.30;;
57593;SDS011;43423;46.510;6.686;2022-08-20T06:01:31;17.50;;;9.82;;
57593;SDS011;43423;46.510;6.686;2022-08-20T06:03:58;19.20;;;10.23;;
57593;SDS011;43423;46.510;6.686;2022-08-20T06:06:42;18.58;;;10.80;;
57593;SDS011;43423;46.510;6.686;2022-08-20T06:09:08;16.60;;;9.70;;
57593;SDS011;43423;46.510;6.686;2022-08-20T06:11:33;17.70;;;10.50;;
57593;SDS011;43423;46.510;6.686;2022-08-20T06:13:59;15.88;;;10.13;;
57593;SDS011;43423;46.510;6.686;2022-08-20T06:16:25;16.60;;;9.30;;
57593;SDS011;43423;46.510;6.686;2022-08-20T06:18:50;16.95;;;9.65;;
57593;SDS011;43423;46.510;6.686;2022-08-20T06:21:16;12.32;;;8.55;;
57593;SDS011;43423;46.510;6.686;2022-08-20T06:23:41;14.75;;;9.13;;
57593;SDS011;43423;46.510;6.686;2022-08-20T06:26:07;12.50;;;8.73;;
57593;SDS011;43423;46.510;6.686;2022-08-20T06:28:34;11.85;;;8.05;;
57593;SDS011;43423;46.510;6.686;2022-08-20T06:31:00;14.07;;;8.80;;
57593;SDS011;43423;46.510;6.686;2022-08-20T06:33:26;11.90;;;7.20;;
57593;SDS011;43423;46.510;6.686;2022-08-20T06:35:52;13.23;;;8.52;;
57593;SDS011;43423;46.510;6.686;2022-08-20T06:38:17;12.88;;;8.73;;
57593;SDS011;43423;46.510;6.686;2022-08-20T06:40:43;13.00;;;8.68;;
57593;SDS011;43423;46.510;6.686;2022-08-20T06:43:08;11.75;;;8.18;;
57593;SDS011;43423;46.510;6.686;2022-08-20T06:45:34;10.80;;;7.43;;
57593;SDS011;43423;46.510;6.686;2022-08-20T06:48:05;15.60;;;8.20;;
57593;SDS011;43423;46.510;6.686;2022-08-20T06:50:39;13.30;;;7.68;;
57593;SDS011;43423;46.510;6.686;2022-08-20T06:53:08;11.55;;;7.20;;
57593;SDS011;43423;46.510;6.686;2022-08-20T06:55:35;12.57;;;8.27;;
57593;SDS011;43423;46.510;6.686;2022-08-20T06:58:04;12.27;;;7.97;;
57593;SDS011;43423;46.510;6.686;2022-08-20T07:00:33;12.55;;;8.20;;
57593;SDS011;43423;46.510;6.686;2022-08-20T07:03:00;12.93;;;8.07;;
57593;SDS011;43423;46.510;6.686;2022-08-20T07:05:32;15.55;;;9.45;;
57593;SDS011;43423;46.510;6.686;2022-08-20T07:07:59;13.93;;;8.98;;
57593;SDS011;43423;46.510;6.686;2022-08-20T07:10:25;10.77;;;7.35;;
57593;SDS011;43423;46.510;6.686;2022-08-20T07:12:51;12.05;;;7.95;;
57593;SDS011;43423;46.510;6.686;2022-08-20T07:15:18;15.60;;;7.97;;
57593;SDS011;43423;46.510;6.686;2022-08-20T07:17:49;14.23;;;9.30;;
57593;SDS011;43423;46.510;6.686;2022-08-20T07:22:41;13.40;;;8.70;;
57593;SDS011;43423;46.510;6.686;2022-08-20T07:25:09;14.05;;;8.50;;
57593;SDS011;43423;46.510;6.686;2022-08-20T07:27:36;15.20;;;9.48;;
57593;SDS011;43423;46.510;6.686;2022-08-20T07:30:03;14.50;;;9.18;;
57593;SDS011;43423;46.510;6.686;2022-08-20T07:32:49;16.80;;;9.05;;
57593;SDS011;43423;46.510;6.686;2022-08-20T07:35:15;16.48;;;9.43;;
57593;SDS011;43423;46.510;6.686;2022-08-20T07:37:43;16.48;;;10.40;;
57593;SDS011;43423;46.510;6.686;2022-08-20T07:40:29;14.10;;;8.95;;
57593;SDS011;43423;46.510;6.686;2022-08-20T07:42:58;15.02;;;9.82;;
57593;SDS011;43423;46.510;6.686;2022-08-20T07:45:27;15.15;;;9.90;;
57593;SDS011;43423;46.510;6.686;2022-08-20T07:47:54;17.10;;;10.02;;
57593;SDS011;43423;46.510;6.686;2022-08-20T07:50:30;14.52;;;9.13;;
57593;SDS011;43423;46.510;6.686;2022-08-20T07:52:56;15.43;;;9.48;;
57593;SDS011;43423;46.510;6.686;2022-08-20T07:55:24;16.33;;;8.55;;
57593;SDS011;43423;46.510;6.686;2022-08-20T07:57:50;15.52;;;9.15;;
57593;SDS011;43423;46.510;6.686;2022-08-20T08:00:17;17.77;;;10.07;;
57593;SDS011;43423;46.510;6.686;2022-08-20T08:02:44;16.48;;;9.93;;
57593;SDS011;43423;46.510;6.686;2022-08-20T08:05:10;15.70;;;9.88;;
57593;SDS011;43423;46.510;6.686;2022-08-20T08:07:36;15.32;;;8.98;;
57593;SDS011;43423;46.510;6.686;2022-08-20T08:10:04;16.13;;;9.27;;
57593;SDS011;43423;46.510;6.686;2022-08-20T08:12:39;14.90;;;9.02;;
57593;SDS011;43423;46.510;6.686;2022-08-20T08:15:10;16.13;;;9.90;;
57593;SDS011;43423;46.510;6.686;2022-08-20T08:17:41;15.98;;;9.25;;
57593;SDS011;43423;46.510;6.686;2022-08-20T08:20:08;16.67;;;9.68;;
57593;SDS011;43423;46.510;6.686;2022-08-20T08:22:36;13.88;;;9.00;;
57593;SDS011;43423;46.510;6.686;2022-08-20T08:25:02;13.15;;;8.85;;
57593;SDS011;43423;46.510;6.686;2022-08-20T08:27:28;14.38;;;8.70;;
57593;SDS011;43423;46.510;6.686;2022-08-20T08:29:58;14.75;;;9.77;;
57593;SDS011;43423;46.510;6.686;2022-08-20T08:32:25;15.20;;;9.02;;
57593;SDS011;43423;46.510;6.686;2022-08-20T08:34:50;12.98;;;7.07;;
57593;SDS011;43423;46.510;6.686;2022-08-20T08:37:16;11.10;;;7.07;;
57593;SDS011;43423;46.510;6.686;2022-08-20T08:39:41;14.05;;;8.02;;
57593;SDS011;43423;46.510;6.686;2022-08-20T08:42:33;8.65;;;6.13;;
57593;SDS011;43423;46.510;6.686;2022-08-20T08:44:59;8.13;;;5.97;;
57593;SDS011;43423;46.510;6.686;2022-08-20T08:47:28;8.48;;;5.78;;
57593;SDS011;43423;46.510;6.686;2022-08-20T08:49:58;8.48;;;5.80;;
57593;SDS011;43423;46.510;6.686;2022-08-20T08:52:27;8.20;;;5.43;;
57593;SDS011;43423;46.510;6.686;2022-08-20T08:54:57;7.45;;;5.13;;
57593;SDS011;43423;46.510;6.686;2022-08-20T08:57:24;8.88;;;5.53;;
57593;SDS011;43423;46.510;6.686;2022-08-20T09:00:06;8.85;;;6.05;;
57593;SDS011;43423;46.510;6.686;2022-08-20T09:02:37;9.88;;;6.07;;
57593;SDS011;43423;46.510;6.686;2022-08-20T09:05:12;9.40;;;5.28;;
57593;SDS011;43423;46.510;6.686;2022-08-20T09:07:40;7.18;;;5.13;;
57593;SDS011;43423;46.510;6.686;2022-08-20T09:10:07;5.65;;;4.07;;
57593;SDS011;43423;46.510;6.686;2022-08-20T09:12:33;4.88;;;3.70;;
57593;SDS011;43423;46.510;6.686;2022-08-20T09:14:58;6.40;;;4.10;;
57593;SDS011;43423;46.510;6.686;2022-08-20T09:17:24;6.28;;;3.97;;
57593;SDS011;43423;46.510;6.686;2022-08-20T09:19:50;4.43;;;3.30;;
57593;SDS011;43423;46.510;6.686;2022-08-20T09:22:18;5.80;;;4.28;;
57593;SDS011;43423;46.510;6.686;2022-08-20T09:24:46;5.25;;;3.42;;
57593;SDS011;43423;46.510;6.686;2022-08-20T09:27:11;4.95;;;3.90;;
57593;SDS011;43423;46.510;6.686;2022-08-20T09:29:38;4.68;;;3.45;;
57593;SDS011;43423;46.510;6.686;2022-08-20T09:32:11;5.78;;;3.80;;
57593;SDS011;43423;46.510;6.686;2022-08-20T09:34:41;5.32;;;3.58;;
57593;SDS011;43423;46.510;6.686;2022-08-20T09:37:09;4.78;;;3.60;;
57593;SDS011;43423;46.510;6.686;2022-08-20T09:39:34;5.80;;;4.22;;
57593;SDS011;43423;46.510;6.686;2022-08-20T09:44:33;6.90;;;4.18;;
57593;SDS011;43423;46.510;6.686;2022-08-20T09:46:58;7.45;;;4.40;;
57593;SDS011;43423;46.510;6.686;2022-08-20T09:49:24;7.72;;;4.82;;
57593;SDS011;43423;46.510;6.686;2022-08-20T09:51:49;5.53;;;4.20;;
57593;SDS011;43423;46.510;6.686;2022-08-20T09:54:15;7.10;;;4.82;;
57593;SDS011;43423;46.510;6.686;2022-08-20T09:56:40;5.93;;;4.40;;
57593;SDS011;43423;46.510;6.686;2022-08-20T09:59:06;5.47;;;4.07;;
57593;SDS011;43423;46.510;6.686;2022-08-20T10:01:31;6.45;;;3.70;;
57593;SDS011;43423;46.510;6.686;2022-08-20T10:03:57;5.85;;;4.32;;
57593;SDS011;43423;46.510;6.686;2022-08-20T10:06:23;5.03;;;3.47;;
57593;SDS011;43423;46.510;6.686;2022-08-20T10:08:48;7.97;;;4.13;;
57593;SDS011;43423;46.510;6.686;2022-08-20T10:11:14;5.60;;;4.20;;
57593;SDS011;43423;46.510;6.686;2022-08-20T10:13:40;5.20;;;3.40;;
57593;SDS011;43423;46.510;6.686;2022-08-20T10:16:06;4.75;;;3.92;;
57593;SDS011;43423;46.510;6.686;2022-08-20T10:18:31;6.13;;;3.45;;
57593;SDS011;43423;46.510;6.686;2022-08-20T10:20:58;6.18;;;4.00;;
57593;SDS011;43423;46.510;6.686;2022-08-20T10:23:24;6.72;;;4.07;;
57593;SDS011;43423;46.510;6.686;2022-08-20T10:25:49;5.15;;;3.88;;
57593;SDS011;43423;46.510;6.686;2022-08-20T10:28:15;5.47;;;4.40;;
57593;SDS011;43423;46.510;6.686;2022-08-20T10:30:40;6.32;;;4.15;;
57593;SDS011;43423;46.510;6.686;2022-08-20T10:33:05;5.95;;;3.83;;
57593;SDS011;43423;46.510;6.686;2022-08-20T10:35:31;5.43;;;3.50;;
57593;SDS011;43423;46.510;6.686;2022-08-20T10:37:56;7.65;;;4.05;;
57593;SDS011;43423;46.510;6.686;2022-08-20T10:40:22;5.22;;;3.53;;
57593;SDS011;43423;46.510;6.686;2022-08-20T10:42:48;4.65;;;3.55;;
57593;SDS011;43423;46.510;6.686;2022-08-20T10:45:14;4.90;;;3.35;;
57593;SDS011;43423;46.510;6.686;2022-08-20T10:47:41;4.50;;;3.60;;
57593;SDS011;43423;46.510;6.686;2022-08-20T10:50:08;5.28;;;3.65;;
57593;SDS011;43423;46.510;6.686;2022-08-20T10:52:36;5.03;;;3.08;;
57593;SDS011;43423;46.510;6.686;2022-08-20T10:55:02;5.10;;;3.20;;
57593;SDS011;43423;46.510;6.686;2022-08-20T10:57:29;5.05;;;3.35;;
57593;SDS011;43423;46.510;6.686;2022-08-20T10:59:58;5.60;;;3.50;;
57593;SDS011;43423;46.510;6.686;2022-08-20T11:02:25;5.35;;;3.88;;
57593;SDS011;43423;46.510;6.686;2022-08-20T11:04:51;4.20;;;3.70;;
57593;SDS011;43423;46.510;6.686;2022-08-20T11:07:23;6.60;;;3.47;;
57593;SDS011;43423;46.510;6.686;2022-08-20T11:09:50;6.15;;;4.32;;
57593;SDS011;43423;46.510;6.686;2022-08-20T11:12:17;4.50;;;3.60;;
57593;SDS011;43423;46.510;6.686;2022-08-20T11:14:44;5.28;;;3.75;;
57593;SDS011;43423;46.510;6.686;2022-08-20T11:17:10;5.35;;;3.60;;
57593;SDS011;43423;46.510;6.686;2022-08-20T11:19:40;4.72;;;3.70;;
57593;SDS011;43423;46.510;6.686;2022-08-20T11:24:33;4.75;;;3.88;;
57593;SDS011;43423;46.510;6.686;2022-08-20T11:26:58;5.25;;;4.13;;
57593;SDS011;43423;46.510;6.686;2022-08-20T11:29:24;7.05;;;4.82;;
57593;SDS011;43423;46.510;6.686;2022-08-20T11:31:50;5.88;;;4.40;;
57593;SDS011;43423;46.510;6.686;2022-08-20T11:34:15;7.88;;;5.68;;
57593;SDS011;43423;46.510;6.686;2022-08-20T11:36:41;7.80;;;4.72;;
57593;SDS011;43423;46.510;6.686;2022-08-20T11:39:08;6.38;;;4.38;;
57593;SDS011;43423;46.510;6.686;2022-08-20T11:41:34;6.53;;;4.75;;
57593;SDS011;43423;46.510;6.686;2022-08-20T11:43:59;5.50;;;4.78;;
57593;SDS011;43423;46.510;6.686;2022-08-20T11:46:25;6.68;;;4.82;;
57593;SDS011;43423;46.510;6.686;2022-08-20T11:48:50;6.05;;;4.72;;
57593;SDS011;43423;46.510;6.686;2022-08-20T11:51:16;7.70;;;4.70;;
57593;SDS011;43423;46.510;6.686;2022-08-20T11:53:41;6.90;;;4.70;;
57593;SDS011;43423;46.510;6.686;2022-08-20T11:56:07;8.10;;;5.30;;
57593;SDS011;43423;46.510;6.686;2022-08-20T11:58:32;7.90;;;5.45;;
57593;SDS011;43423;46.510;6.686;2022-08-20T12:00:58;7.88;;;5.63;;
57593;SDS011;43423;46.510;6.686;2022-08-20T12:03:23;8.25;;;5.63;;
57593;SDS011;43423;46.510;6.686;2022-08-20T12:05:49;8.75;;;5.22;;
57593;SDS011;43423;46.510;6.686;2022-08-20T12:08:14;8.07;;;5.88;;
57593;SDS011;43423;46.510;6.686;2022-08-20T12:10:40;7.80;;;5.25;;
57593;SDS011;43423;46.510;6.686;2022-08-20T12:13:06;7.90;;;5.22;;
57593;SDS011;43423;46.510;6.686;2022-08-20T12:15:32;7.63;;;5.40;;
57593;SDS011;43423;46.510;6.686;2022-08-20T12:17:59;6.57;;;4.95;;
57593;SDS011;43423;46.510;6.686;2022-08-20T12:20:25;6.53;;;4.53;;
57593;SDS011;43423;46.510;6.686;2022-08-20T12:22:51;8.57;;;5.07;;
57593;SDS011;43423;46.510;6.686;2022-08-20T12:25:18;6.68;;;4.97;;
57593;SDS011;43423;46.510;6.686;2022-08-20T12:27:44;6.95;;;4.63;;
57593;SDS011;43423;46.510;6.686;2022-08-20T12:30:12;6.07;;;4.88;;
57593;SDS011;43423;46.510;6.686;2022-08-20T12:35:07;5.90;;;4.45;;
57593;SDS011;43423;46.510;6.686;2022-08-20T12:37:33;5.53;;;4.45;;
57593;SDS011;43423;46.510;6.686;2022-08-20T12:40:00;5.95;;;4.47;;
57593;SDS011;43423;46.510;6.686;2022-08-20T12:42:28;6.35;;;4.18;;
57593;SDS011;43423;46.510;6.686;2022-08-20T12:44:54;5.53;;;4.10;;
57593;SDS011;43423;46.510;6.686;2022-08-20T12:47:25;4.72;;;3.83;;
57593;SDS011;43423;46.510;6.686;2022-08-20T12:49:54;6.05;;;4.20;;
57593;SDS011;43423;46.510;6.686;2022-08-20T12:52:21;4.80;;;3.67;;
57593;SDS011;43423;46.510;6.686;2022-08-20T12:54:48;4.72;;;3.88;;
57593;SDS011;43423;46.510;6.686;2022-08-20T12:59:59;4.93;;;3.85;;
57593;SDS011;43423;46.510;6.686;2022-08-20T13:02:26;4.55;;;3.60;;
57593;SDS011;43423;46.510;6.686;2022-08-20T13:04:52;4.32;;;3.47;;
57593;SDS011;43423;46.510;6.686;2022-08-20T13:07:18;5.43;;;3.72;;
57593;SDS011;43423;46.510;6.686;2022-08-20T13:09:43;6.85;;;4.30;;
57593;SDS011;43423;46.510;6.686;2022-08-20T13:12:09;4.25;;;3.65;;
57593;SDS011;43423;46.510;6.686;2022-08-20T13:14:36;4.97;;;3.60;;
57593;SDS011;43423;46.510;6.686;2022-08-20T13:17:02;5.10;;;3.92;;
57593;SDS011;43423;46.510;6.686;2022-08-20T13:19:28;6.82;;;3.90;;
57593;SDS011;43423;46.510;6.686;2022-08-20T13:21:55;4.95;;;3.88;;
57593;SDS011;43423;46.510;6.686;2022-08-20T13:24:21;5.32;;;4.32;;
57593;SDS011;43423;46.510;6.686;2022-08-20T13:26:47;6.43;;;4.05;;
57593;SDS011;43423;46.510;6.686;2022-08-20T13:29:13;6.75;;;4.15;;
57593;SDS011;43423;46.510;6.686;2022-08-20T13:31:39;10.57;;;4.28;;
57593;SDS011;43423;46.510;6.686;2022-08-20T13:34:05;4.68;;;3.75;;
57593;SDS011;43423;46.510;6.686;2022-08-20T13:36:31;5.95;;;4.28;;
57593;SDS011;43423;46.510;6.686;2022-08-20T13:38:56;6.18;;;4.80;;
57593;SDS011;43423;46.510;6.686;2022-08-20T13:41:22;7.85;;;4.78;;
57593;SDS011;43423;46.510;6.686;2022-08-20T13:43:48;6.22;;;4.65;;
57593;SDS011;43423;46.510;6.686;2022-08-20T13:46:13;6.65;;;5.00;;
57593;SDS011;43423;46.510;6.686;2022-08-20T13:48:39;5.93;;;4.20;;
57593;SDS011;43423;46.510;6.686;2022-08-20T13:51:05;6.05;;;4.55;;
57593;SDS011;43423;46.510;6.686;2022-08-20T13:53:30;5.63;;;4.03;;
57593;SDS011;43423;46.510;6.686;2022-08-20T13:55:55;5.38;;;4.05;;
57593;SDS011;43423;46.510;6.686;2022-08-20T13:58:21;5.40;;;4.20;;
57593;SDS011;43423;46.510;6.686;2022-08-20T14:00:47;4.70;;;3.90;;
57593;SDS011;43423;46.510;6.686;2022-08-20T14:03:13;5.80;;;4.10;;
57593;SDS011;43423;46.510;6.686;2022-08-20T14:05:39;6.32;;;3.95;;
57593;SDS011;43423;46.510;6.686;2022-08-20T14:08:25;7.13;;;3.55;;
57593;SDS011;43423;46.510;6.686;2022-08-20T14:10:50;4.63;;;3.47;;
57593;SDS011;43423;46.510;6.686;2022-08-20T14:13:16;4.10;;;3.38;;
57593;SDS011;43423;46.510;6.686;2022-08-20T14:15:44;6.15;;;3.55;;
57593;SDS011;43423;46.510;6.686;2022-08-20T14:18:10;4.30;;;3.60;;
57593;SDS011;43423;46.510;6.686;2022-08-20T14:20:36;5.95;;;4.30;;
57593;SDS011;43423;46.510;6.686;2022-08-20T14:23:02;6.07;;;3.95;;
57593;SDS011;43423;46.510;6.686;2022-08-20T14:25:28;4.60;;;3.75;;
57593;SDS011;43423;46.510;6.686;2022-08-20T14:27:55;5.40;;;3.80;;
57593;SDS011;43423;46.510;6.686;2022-08-20T14:30:22;4.88;;;3.45;;
57593;SDS011;43423;46.510;6.686;2022-08-20T14:32:51;6.20;;;3.42;;
57593;SDS011;43423;46.510;6.686;2022-08-20T14:35:17;4.22;;;3.40;;
57593;SDS011;43423;46.510;6.686;2022-08-20T14:37:46;5.18;;;3.30;;
57593;SDS011;43423;46.510;6.686;2022-08-20T14:42:41;5.28;;;3.20;;
57593;SDS011;43423;46.510;6.686;2022-08-20T14:45:08;4.22;;;3.30;;
57593;SDS011;43423;46.510;6.686;2022-08-20T14:47:36;4.07;;;3.35;;
57593;SDS011;43423;46.510;6.686;2022-08-20T14:50:09;4.90;;;3.60;;
57593;SDS011;43423;46.510;6.686;2022-08-20T14:52:38;4.15;;;3.05;;
57593;SDS011;43423;46.510;6.686;2022-08-20T14:55:07;5.88;;;3.60;;
57593;SDS011;43423;46.510;6.686;2022-08-20T14:57:38;4.20;;;3.72;;
57593;SDS011;43423;46.510;6.686;2022-08-20T15:00:06;3.85;;;3.33;;
57593;SDS011;43423;46.510;6.686;2022-08-20T15:02:34;4.57;;;3.43;;
57593;SDS011;43423;46.510;6.686;2022-08-20T15:05:00;4.25;;;3.17;;